Ottawa, Canada
Current Conditions -  °F | °C
As of 10:40 AM on Friday 28 Nov 2014 (Local Time) from CYOW Reporting Station
Light Snow Light Snow  
Wind Chill:   Ceiling: 2500
Heat Index: 21°   Visibility: 15mi
Dew Point: 14°   Wind: 13mph
Humidity: 74%   Direction: 310°NW
Pressure: 30.15"   Gusts: 20mph
Location:  45.42°N, 75.69°W
Report Text: CYOW 281540Z 31011G17KT 15SM -SN BKN025 M06/M10 A3015 RMK SC7 SLP217
Loading
Personal Weather Stations






























Interactive Weather Map New forecast layout! Learn more

10-Day Weather Forecast

Advertisements
Track Severe Weather on mobile